Time;durP1;ratioP1;P1;durP2;ratioP2;P2;SDS_P1;SDS_P2;PMS_P1;PMS_P2;Temp;Humidity;BMP_temperature;BMP_pressure;BME280_temperature;BME280_humidity;BME280_pressure;Samples;Min_cycle;Max_cycle;Signal;HPM_P1;HPM_P2
2023/01/09 00:00:39;;;;;;;0.40;0.40;;;;;;;8.39;100.00;98539.44;4992992;28;20193;-75
2023/01/09 00:03:05;;;;;;;0.47;0.30;;;;;;;8.38;100.00;98535.19;4990544;28;20213;-74
2023/01/09 00:05:30;;;;;;;0.40;0.40;;;;;;;8.38;100.00;98532.59;4993606;28;20201;-74
2023/01/09 00:07:55;;;;;;;0.60;0.30;;;;;;;8.39;100.00;98529.13;4992760;28;20258;-74
2023/01/09 00:10:21;;;;;;;0.20;0.20;;;;;;;8.38;100.00;98513.72;4994103;28;20734;-76
2023/01/09 00:12:46;;;;;;;0.97;0.50;;;;;;;8.38;100.00;98509.41;4992804;28;20243;-75
2023/01/09 00:15:11;;;;;;;1.17;0.23;;;;;;;8.40;100.00;98506.78;4993089;28;20192;-75
2023/01/09 00:17:37;;;;;;;0.20;0.20;;;;;;;8.42;100.00;98507.56;4994161;28;20227;-74
2023/01/09 00:20:05;;;;;;;0.60;0.30;;;;;;;8.43;100.00;98506.69;4989249;28;20217;-75
2023/01/09 00:22:30;;;;;;;0.20;0.20;;;;;;;8.45;100.00;98504.91;4994525;28;20212;-74
2023/01/09 00:24:56;;;;;;;0.43;0.33;;;;;;;8.46;100.00;98500.63;4991109;28;20195;-75
2023/01/09 00:27:21;;;;;;;0.83;0.30;;;;;;;8.48;100.00;98496.25;4998662;28;20196;-74
2023/01/09 00:29:48;;;;;;;0.30;0.30;;;;;;;8.46;100.00;98493.72;5005459;28;20192;-75
2023/01/09 00:32:13;;;;;;;0.23;0.23;;;;;;;8.47;100.00;98492.81;4994626;28;20212;-74
2023/01/09 00:34:39;;;;;;;0.30;0.30;;;;;;;8.47;100.00;98487.66;4991342;28;20199;-75
2023/01/09 00:37:10;;;;;;;0.73;0.30;;;;;;;8.50;100.00;98499.66;5021778;28;20197;-75
2023/01/09 00:39:37;;;;;;;0.30;0.20;;;;;;;8.48;100.00;98484.22;5012104;28;20196;-74
2023/01/09 00:42:04;;;;;;;0.67;0.40;;;;;;;8.48;100.00;98488.53;4996136;28;20209;-75
2023/01/09 00:44:38;;;;;;;0.40;0.40;;;;;;;8.48;100.00;98489.38;4994621;28;20258;-75
2023/01/09 00:47:12;;;;;;;0.83;0.37;;;;;;;8.47;100.00;98489.41;4988926;28;20341;-75
2023/01/09 00:49:38;;;;;;;1.20;0.30;;;;;;;8.45;100.00;98498.94;4994898;28;20181;-75
2023/01/09 00:52:06;;;;;;;0.60;0.50;;;;;;;8.42;100.00;98496.44;4995773;28;20212;-75
2023/01/09 00:54:32;;;;;;;0.30;0.30;;;;;;;8.43;100.00;98511.00;4999992;28;20275;-74
2023/01/09 00:56:58;;;;;;;0.40;0.40;;;;;;;8.45;100.00;98516.97;4997275;28;20293;-74
2023/01/09 00:59:25;;;;;;;0.30;0.30;;;;;;;8.45;100.00;98507.50;4996853;28;20199;-75
2023/01/09 01:01:50;;;;;;;0.40;0.40;;;;;;;8.40;100.00;98504.19;4999399;28;20204;-75
2023/01/09 01:09:44;;;;;;;0.30;0.30;;;;;;;8.41;100.00;98493.00;5000942;28;20280;-74
2023/01/09 01:12:09;;;;;;;0.40;0.30;;;;;;;8.41;100.00;98500.72;4994858;28;20686;-74
2023/01/09 01:14:36;;;;;;;0.30;0.30;;;;;;;8.39;100.00;98503.34;4996843;28;20212;-75
2023/01/09 01:17:03;;;;;;;0.47;0.40;;;;;;;8.35;100.00;98509.47;5000645;28;20187;-74
2023/01/09 01:19:28;;;;;;;0.30;0.30;;;;;;;8.33;100.00;98515.56;4994038;28;20228;-75
2023/01/09 01:21:54;;;;;;;0.30;0.30;;;;;;;8.31;100.00;98507.91;4999108;28;20213;-75
2023/01/09 01:24:20;;;;;;;0.87;0.40;;;;;;;8.26;100.00;98509.75;4997986;28;20184;-74
2023/01/09 01:26:46;;;;;;;0.40;0.23;;;;;;;8.24;100.00;98512.34;5005272;28;20574;-74
2023/01/09 01:29:11;;;;;;;0.40;0.30;;;;;;;8.24;100.00;98512.34;4993332;28;20711;-74
2023/01/09 01:31:36;;;;;;;0.40;0.40;;;;;;;8.23;100.00;98521.00;4995524;28;20219;-73
2023/01/09 01:34:02;;;;;;;0.30;0.30;;;;;;;8.23;100.00;98518.44;4996565;28;20192;-74
2023/01/09 01:36:27;;;;;;;0.40;0.40;;;;;;;8.25;100.00;98513.22;4996273;28;20287;-75
2023/01/09 01:38:52;;;;;;;0.60;0.40;;;;;;;8.26;100.00;98516.63;4995528;28;20198;-74
2023/01/09 01:41:28;;;;;;;0.30;0.30;;;;;;;8.24;100.00;98521.84;4991057;28;20184;-73
2023/01/09 01:44:04;;;;;;;0.20;0.20;;;;;;;8.27;100.00;98518.31;5006794;28;20745;-75
2023/01/09 01:46:31;;;;;;;0.30;0.30;;;;;;;8.28;100.00;98526.03;4996991;28;20191;-74
2023/01/09 01:49:10;;;;;;;0.40;0.30;;;;;;;8.28;100.00;98527.75;5001614;28;20207;-75
2023/01/09 01:51:43;;;;;;;0.83;0.40;;;;;;;8.29;100.00;98526.84;4999837;28;20212;-75
2023/01/09 01:54:14;;;;;;;0.80;0.30;;;;;;;8.27;100.00;98524.34;5001744;28;20192;-74
2023/01/09 01:56:52;;;;;;;0.30;0.20;;;;;;;8.25;100.00;98523.53;4995220;28;20193;-75
2023/01/09 01:59:23;;;;;;;0.53;0.40;;;;;;;8.23;100.00;98523.56;4994491;28;20198;-74
2023/01/09 02:01:52;;;;;;;0.40;0.40;;;;;;;8.25;100.00;98515.78;4999420;28;20596;-74
2023/01/09 02:04:18;;;;;;;0.57;0.30;;;;;;;8.18;100.00;98517.69;4991859;28;20228;-76
2023/01/09 02:06:47;;;;;;;0.30;0.30;;;;;;;8.15;100.00;98512.63;4993155;28;20240;-75
2023/01/09 02:09:14;;;;;;;0.83;0.40;;;;;;;8.13;100.00;98516.97;4998259;28;20255;-74
2023/01/09 02:11:47;;;;;;;0.40;0.40;;;;;;;8.12;100.00;98530.75;4993977;28;20211;-75
2023/01/09 02:14:15;;;;;;;0.50;0.40;;;;;;;8.13;100.00;98529.84;4996566;28;20688;-75
2023/01/09 02:17:18;;;;;;;0.87;0.40;;;;;;;8.17;100.00;98530.59;4998531;28;20185;-74
2023/01/09 02:20:30;;;;;;;0.60;0.30;;;;;;;8.21;100.00;98535.66;5021043;28;20194;-75
2023/01/09 02:23:25;;;;;;;0.70;0.40;;;;;;;8.26;100.00;98530.38;5011109;28;20203;-74
2023/01/09 02:26:22;;;;;;;1.73;0.40;;;;;;;8.29;100.00;98538.03;4996428;28;20201;-75
2023/01/09 02:29:06;;;;;;;0.90;0.43;;;;;;;8.29;100.00;98544.91;5002555;28;20195;-74
2023/01/09 02:31:38;;;;;;;1.10;0.30;;;;;;;8.33;100.00;98551.66;4997987;28;20196;-75
2023/01/09 02:34:04;;;;;;;0.50;0.50;;;;;;;8.33;100.00;98564.56;4996411;28;20200;-74
2023/01/09 02:36:50;;;;;;;0.60;0.60;;;;;;;8.35;100.00;98565.34;5005256;28;20570;-74
2023/01/09 02:39:34;;;;;;;0.70;0.43;;;;;;;8.38;100.00;98565.28;5020315;28;20196;-74
2023/01/09 02:42:04;;;;;;;0.53;0.50;;;;;;;8.40;100.00;98568.63;4997222;28;20219;-75
2023/01/09 02:44:35;;;;;;;0.50;0.50;;;;;;;8.45;100.00;98584.00;4997363;28;20184;-75
2023/01/09 02:47:26;;;;;;;0.70;0.67;;;;;;;8.49;100.00;98580.44;5012514;28;20177;-75
2023/01/09 02:49:58;;;;;;;0.70;0.70;;;;;;;8.48;100.00;98607.13;5035804;28;20173;-75
2023/01/09 02:52:56;;;;;;;0.80;0.77;;;;;;;8.47;100.00;98650.09;5004760;28;20288;-73
2023/01/09 02:55:50;;;;;;;1.83;0.70;;;;;;;8.37;100.00;98653.81;5003261;28;20277;-74
2023/01/09 02:58:50;;;;;;;1.00;0.47;;;;;;;8.12;100.00;98653.59;5001428;28;20306;-74
2023/01/09 03:01:34;;;;;;;0.30;0.30;;;;;;;7.90;100.00;98647.25;4994645;28;20191;-73
2023/01/09 03:04:21;;;;;;;0.47;0.40;;;;;;;7.76;100.00;98664.75;5001611;28;20584;-73
2023/01/09 03:07:07;;;;;;;0.30;0.30;;;;;;;7.67;100.00;98660.66;5002874;28;20185;-75
2023/01/09 03:09:36;;;;;;;0.50;0.30;;;;;;;7.61;100.00;98677.09;4996374;28;20295;-73
2023/01/09 03:12:10;;;;;;;0.93;0.40;;;;;;;7.57;100.00;98679.75;5003125;28;20286;-73
2023/01/09 03:14:39;;;;;;;0.30;0.30;;;;;;;7.52;100.00;98676.47;5005146;28;20320;-75
2023/01/09 03:17:09;;;;;;;0.30;0.30;;;;;;;7.49;100.00;98690.22;5003024;28;20668;-75
2023/01/09 03:19:36;;;;;;;1.17;0.20;;;;;;;7.47;100.00;98694.59;5000467;28;20738;-73
2023/01/09 03:22:02;;;;;;;0.33;0.30;;;;;;;7.45;100.00;98704.06;4996123;28;20647;-75
2023/01/09 03:24:27;;;;;;;1.27;0.43;;;;;;;7.45;100.00;98712.63;4997229;28;20185;-76
2023/01/09 03:26:55;;;;;;;0.30;0.30;;;;;;;7.38;100.00;98720.50;4997572;28;20624;-75
2023/01/09 03:29:21;;;;;;;0.40;0.40;;;;;;;7.30;100.00;98729.25;5001193;28;20193;-74
2023/01/09 03:31:46;;;;;;;0.47;0.37;;;;;;;7.28;100.00;98743.88;4997954;28;20204;-73
2023/01/09 03:34:11;;;;;;;0.40;0.40;;;;;;;7.22;100.00;98749.13;4999160;28;20218;-74
2023/01/09 03:36:37;;;;;;;2.00;0.50;;;;;;;7.20;100.00;98765.47;4996874;28;20197;-73
2023/01/09 03:39:03;;;;;;;1.87;0.40;;;;;;;7.16;100.00;98765.53;5003962;28;20209;-74
2023/01/09 03:41:28;;;;;;;0.70;0.50;;;;;;;7.20;100.00;98778.34;4999248;28;20192;-77
2023/01/09 03:43:53;;;;;;;0.83;0.50;;;;;;;7.12;100.00;98776.75;5001363;28;20334;-75
2023/01/09 03:46:18;;;;;;;0.63;0.50;;;;;;;7.07;100.00;98780.28;5001342;28;20185;-74
2023/01/09 03:48:44;;;;;;;1.17;0.57;;;;;;;7.06;100.00;98783.75;4994568;28;20200;-73
2023/01/09 03:51:09;;;;;;;1.13;0.40;;;;;;;7.04;100.00;98799.22;4995712;28;20192;-73
2023/01/09 03:53:34;;;;;;;0.50;0.40;;;;;;;7.00;100.00;98801.00;4998032;28;20217;-74
2023/01/09 03:56:00;;;;;;;1.63;0.50;;;;;;;6.98;100.00;98807.03;4996177;28;20276;-74
2023/01/09 03:58:26;;;;;;;1.13;0.40;;;;;;;6.96;100.00;98795.91;4992922;28;20290;-74
2023/01/09 04:00:56;;;;;;;2.00;0.40;;;;;;;6.92;100.00;98802.03;4997805;28;20801;-74
2023/01/09 04:03:22;;;;;;;0.63;0.30;;;;;;;6.90;100.00;98803.75;4991329;28;20241;-74
2023/01/09 04:05:50;;;;;;;1.20;0.40;;;;;;;6.84;100.00;98808.13;4997766;28;20193;-74
2023/01/09 04:08:17;;;;;;;0.87;0.40;;;;;;;6.81;100.00;98813.31;4998114;28;20191;-74
2023/01/09 04:10:47;;;;;;;0.50;0.30;;;;;;;6.77;100.00;98821.97;4993066;28;20215;-74
2023/01/09 04:13:12;;;;;;;1.33;0.50;;;;;;;6.76;100.00;98820.28;4998816;28;20301;-74
2023/01/09 04:15:38;;;;;;;0.40;0.40;;;;;;;6.69;100.00;98827.25;4994567;28;20266;-74
2023/01/09 04:18:03;;;;;;;0.73;0.40;;;;;;;6.67;100.00;98831.56;4996156;28;20224;-74
2023/01/09 04:20:29;;;;;;;0.40;0.33;;;;;;;6.66;100.00;98835.00;4991813;28;20229;-74
2023/01/09 04:22:55;;;;;;;0.57;0.40;;;;;;;6.62;100.00;98842.81;4995803;28;20255;-74
2023/01/09 04:25:21;;;;;;;0.83;0.40;;;;;;;6.61;100.00;98841.94;4995076;28;20609;-74
2023/01/09 04:27:47;;;;;;;0.77;0.30;;;;;;;6.58;100.00;98844.56;4992361;28;20281;-75
2023/01/09 04:30:13;;;;;;;0.30;0.30;;;;;;;6.55;100.00;98848.03;4994371;28;20319;-74
2023/01/09 04:32:38;;;;;;;1.93;0.40;;;;;;;6.55;100.00;98850.59;4991469;28;20319;-74
2023/01/09 04:35:04;;;;;;;1.30;0.53;;;;;;;6.48;100.00;98858.44;4988939;28;20314;-74
2023/01/09 04:37:29;;;;;;;1.87;0.43;;;;;;;6.46;100.00;98862.75;4994805;28;20197;-74
2023/01/09 04:39:54;;;;;;;1.10;0.47;;;;;;;6.44;100.00;98878.19;4995233;28;20211;-74
2023/01/09 04:42:20;;;;;;;0.50;0.40;;;;;;;6.42;100.00;98881.66;4995598;28;20243;-75
2023/01/09 04:44:46;;;;;;;0.40;0.37;;;;;;;6.38;100.00;98884.28;4996885;28;20915;-74
2023/01/09 04:47:12;;;;;;;0.97;0.40;;;;;;;6.36;100.00;98890.28;4993561;28;20201;-74
2023/01/09 04:49:38;;;;;;;0.80;0.27;;;;;;;6.37;100.00;98884.28;4994621;28;20703;-75
2023/01/09 04:52:03;;;;;;;0.73;0.40;;;;;;;6.37;100.00;98892.84;5000789;28;20296;-74
2023/01/09 04:54:29;;;;;;;1.00;0.60;;;;;;;6.32;100.00;98899.78;5003499;28;20206;-74
2023/01/09 04:56:54;;;;;;;0.40;0.30;;;;;;;6.27;100.00;98899.00;5004010;28;20202;-73
2023/01/09 04:59:19;;;;;;;0.73;0.40;;;;;;;6.23;100.00;98895.59;5027478;28;20182;-74
2023/01/09 05:01:45;;;;;;;0.83;0.50;;;;;;;6.18;100.00;98905.13;5029547;28;20212;-75
2023/01/09 05:04:10;;;;;;;0.60;0.40;;;;;;;6.09;100.00;98908.66;4997680;28;20749;-75
2023/01/09 05:06:36;;;;;;;0.53;0.40;;;;;;;6.05;100.00;98914.69;5007778;28;20971;-74
2023/01/09 05:09:01;;;;;;;0.93;0.70;;;;;;;5.99;100.00;98908.75;5005106;28;20212;-74
2023/01/09 05:11:27;;;;;;;1.10;0.50;;;;;;;5.94;100.00;98911.38;4999601;28;20775;-73
2023/01/09 05:13:53;;;;;;;0.97;0.50;;;;;;;5.84;100.00;98912.34;5009314;28;20173;-73
2023/01/09 05:16:19;;;;;;;1.57;0.43;;;;;;;5.73;100.00;98913.31;5004303;28;20193;-74
2023/01/09 05:18:45;;;;;;;1.90;0.50;;;;;;;5.68;100.00;98916.81;5000836;28;20219;-74
2023/01/09 05:21:10;;;;;;;0.60;0.57;;;;;;;5.63;100.00;98922.00;4996727;28;20214;-73
2023/01/09 05:23:36;;;;;;;0.50;0.50;;;;;;;5.59;100.00;98910.94;4993986;28;20678;-74
2023/01/09 05:26:03;;;;;;;0.80;0.30;;;;;;;5.54;100.00;98915.25;5005001;28;20194;-73
2023/01/09 05:28:28;;;;;;;0.93;0.60;;;;;;;5.56;100.00;98918.66;4998525;28;20200;-74
2023/01/09 05:30:54;;;;;;;0.80;0.50;;;;;;;5.44;100.00;98922.19;4992826;28;20182;-73
2023/01/09 05:33:19;;;;;;;0.50;0.47;;;;;;;5.37;100.00;98925.66;5005783;28;20417;-74
2023/01/09 05:35:44;;;;;;;0.70;0.40;;;;;;;5.38;100.00;98926.53;5005369;28;20209;-73
2023/01/09 05:38:10;;;;;;;0.60;0.50;;;;;;;5.38;100.00;98937.63;5002262;28;20195;-74
2023/01/09 05:40:35;;;;;;;0.30;0.30;;;;;;;5.51;100.00;98935.81;5000353;28;20190;-74
2023/01/09 05:43:01;;;;;;;0.40;0.40;;;;;;;5.64;100.00;98939.09;4995574;28;20231;-74
2023/01/09 05:45:26;;;;;;;0.53;0.37;;;;;;;5.76;100.00;98943.22;4998075;28;20204;-74
2023/01/09 05:47:51;;;;;;;0.70;0.47;;;;;;;5.87;100.00;98943.97;5005029;28;20190;-74
2023/01/09 05:50:17;;;;;;;0.77;0.33;;;;;;;5.95;100.00;98937.03;5001190;28;20232;-74
2023/01/09 05:52:42;;;;;;;2.03;0.43;;;;;;;6.04;100.00;98953.25;4994109;28;20233;-75
2023/01/09 05:55:08;;;;;;;0.70;0.50;;;;;;;6.13;100.00;98952.25;4996392;28;20565;-74
2023/01/09 05:57:33;;;;;;;1.30;0.53;;;;;;;6.18;100.00;98946.22;4998322;28;21354;-74
2023/01/09 05:59:58;;;;;;;0.80;0.50;;;;;;;6.20;100.00;98952.16;4995338;28;20274;-74
2023/01/09 06:02:24;;;;;;;1.13;0.67;;;;;;;6.29;100.00;98948.63;4998442;28;20218;-74
2023/01/09 06:04:49;;;;;;;1.00;0.50;;;;;;;6.33;100.00;98964.88;5000423;28;20193;-74
2023/01/09 06:07:14;;;;;;;0.77;0.40;;;;;;;6.37;100.00;98964.81;5003756;28;20253;-74
2023/01/09 06:09:40;;;;;;;1.43;0.60;;;;;;;6.42;100.00;98961.34;5003742;28;20179;-73
2023/01/09 06:12:05;;;;;;;1.77;0.67;;;;;;;6.43;100.00;98965.59;5004284;28;20215;-74
2023/01/09 06:14:31;;;;;;;3.10;0.90;;;;;;;6.46;100.00;98952.69;5003179;28;20222;-74
2023/01/09 06:16:56;;;;;;;2.40;0.90;;;;;;;6.50;100.00;98955.22;4997658;28;20258;-74
2023/01/09 06:19:21;;;;;;;1.10;0.70;;;;;;;6.52;100.00;98958.59;5007981;28;20626;-74
2023/01/09 06:21:47;;;;;;;1.50;0.63;;;;;;;6.54;100.00;98959.44;5003440;28;20264;-73
2023/01/09 06:24:12;;;;;;;1.93;0.70;;;;;;;6.58;100.00;98962.78;5006955;28;20702;-74
2023/01/09 06:26:38;;;;;;;3.40;1.00;;;;;;;6.58;100.00;98961.97;5003064;28;20248;-74
2023/01/09 06:29:03;;;;;;;1.73;0.70;;;;;;;6.53;100.00;98967.16;5004001;28;20190;-73
2023/01/09 06:31:28;;;;;;;2.23;0.90;;;;;;;6.52;100.00;98975.75;5001562;28;20637;-74
2023/01/09 06:33:54;;;;;;;3.13;1.10;;;;;;;6.52;100.00;98971.44;5001458;28;20195;-74
2023/01/09 06:36:19;;;;;;;3.80;1.10;;;;;;;6.51;100.00;98967.19;5004681;28;20198;-73
2023/01/09 06:38:44;;;;;;;2.97;0.93;;;;;;;6.41;100.00;98968.19;5002660;28;20200;-74
2023/01/09 06:41:10;;;;;;;2.57;0.87;;;;;;;6.32;100.00;98976.84;4997119;28;20960;-74
2023/01/09 06:43:35;;;;;;;2.40;0.90;;;;;;;6.20;100.00;98971.88;5000637;28;20294;-75
2023/01/09 06:46:01;;;;;;;2.33;0.93;;;;;;;6.17;100.00;98979.63;5004419;28;20789;-74
2023/01/09 06:48:26;;;;;;;2.80;1.03;;;;;;;6.19;100.00;98975.31;5003107;28;20202;-74
2023/01/09 06:50:52;;;;;;;3.57;1.53;;;;;;;6.20;100.00;98993.25;5000476;28;20196;-74
2023/01/09 06:53:17;;;;;;;3.17;1.00;;;;;;;6.28;100.00;98992.34;5004900;28;20230;-73
2023/01/09 06:55:43;;;;;;;4.50;1.00;;;;;;;6.33;100.00;98991.41;5003650;28;20187;-73
2023/01/09 06:58:09;;;;;;;2.60;0.80;;;;;;;6.36;100.00;98993.94;5004088;28;20198;-75
2023/01/09 07:00:34;;;;;;;2.07;0.80;;;;;;;6.42;100.00;98993.00;4998444;28;20190;-74
2023/01/09 07:03:00;;;;;;;1.40;0.83;;;;;;;6.42;100.00;98992.19;5000992;28;20217;-74
2023/01/09 07:05:25;;;;;;;2.00;1.20;;;;;;;6.50;100.00;99001.50;5002090;28;20196;-73
2023/01/09 07:07:50;;;;;;;1.83;1.10;;;;;;;6.53;100.00;98991.13;5002891;28;20777;-73
2023/01/09 07:10:16;;;;;;;3.93;1.10;;;;;;;6.59;100.00;98999.66;5022558;28;20216;-75
2023/01/09 07:12:41;;;;;;;2.13;1.00;;;;;;;6.60;100.00;98997.03;5037265;28;20310;-74
2023/01/09 07:15:07;;;;;;;1.87;0.93;;;;;;;6.62;100.00;98995.31;5006193;28;20639;-73
2023/01/09 07:17:32;;;;;;;2.20;1.07;;;;;;;6.65;100.00;99000.41;5000678;28;20297;-73
2023/01/09 07:19:59;;;;;;;1.93;0.87;;;;;;;6.68;100.00;98996.94;5001815;28;20979;-75
2023/01/09 07:22:24;;;;;;;3.27;1.20;;;;;;;6.74;100.00;99002.00;5003299;28;20232;-74
2023/01/09 07:24:49;;;;;;;2.07;0.90;;;;;;;6.75;100.00;98992.56;4998471;28;20702;-73
2023/01/09 07:27:14;;;;;;;6.33;1.63;;;;;;;6.79;100.00;98992.53;5004847;28;20187;-74
2023/01/09 07:29:40;;;;;;;3.73;0.90;;;;;;;6.84;100.00;98998.44;5001600;28;20672;-74
2023/01/09 07:32:06;;;;;;;3.37;1.00;;;;;;;6.82;100.00;98989.88;5003822;28;20220;-74
2023/01/09 07:34:31;;;;;;;2.03;1.10;;;;;;;6.85;100.00;98991.56;5004247;28;20309;-75
2023/01/09 07:36:56;;;;;;;2.53;1.60;;;;;;;6.84;100.00;98989.88;5005023;28;20189;-74
2023/01/09 07:39:22;;;;;;;2.03;1.27;;;;;;;6.89;100.00;98987.22;5003069;28;20205;-72
2023/01/09 07:41:47;;;;;;;4.30;1.47;;;;;;;6.86;100.00;98983.84;4998223;28;20227;-74
2023/01/09 07:44:13;;;;;;;4.20;2.47;;;;;;;6.86;100.00;98986.41;5006751;28;20277;-74
2023/01/09 07:46:38;;;;;;;4.43;1.60;;;;;;;6.84;100.00;98993.28;5003591;28;20194;-74
2023/01/09 07:49:04;;;;;;;2.17;1.03;;;;;;;6.81;100.00;98995.91;5000612;28;20196;-74
2023/01/09 07:51:29;;;;;;;1.27;1.00;;;;;;;6.83;100.00;98995.88;5001688;28;20230;-75
2023/01/09 07:53:54;;;;;;;1.87;1.20;;;;;;;6.88;100.00;99001.81;5001027;28;20191;-75
2023/01/09 07:56:20;;;;;;;2.93;1.03;;;;;;;7.01;100.00;99005.03;4997225;28;20717;-75
2023/01/09 07:58:45;;;;;;;2.77;1.40;;;;;;;7.04;100.00;99004.13;5000029;28;20189;-74
2023/01/09 08:01:10;;;;;;;2.63;1.20;;;;;;;7.09;100.00;98995.50;5002042;28;20199;-75
2023/01/09 08:03:37;;;;;;;2.43;1.40;;;;;;;7.12;100.00;99008.28;4997614;28;20216;-74
2023/01/09 08:06:02;;;;;;;2.17;1.10;;;;;;;7.16;100.00;99011.69;5007494;28;20192;-74
2023/01/09 08:08:27;;;;;;;3.70;1.07;;;;;;;7.27;100.00;99012.38;5004597;28;20702;-74
2023/01/09 08:10:53;;;;;;;2.53;1.40;;;;;;;7.36;100.00;99010.50;4999438;28;20211;-75
2023/01/09 08:13:18;;;;;;;3.27;1.23;;;;;;;7.50;100.00;99010.28;5006139;28;21062;-74
2023/01/09 08:15:43;;;;;;;2.17;0.90;;;;;;;7.56;100.00;99013.59;5002781;28;20837;-73
2023/01/09 08:18:09;;;;;;;2.70;1.20;;;;;;;7.58;100.00;99011.84;4995139;28;20193;-74
2023/01/09 08:20:34;;;;;;;3.80;1.03;;;;;;;7.57;100.00;98999.00;5001400;28;20191;-74
2023/01/09 08:22:59;;;;;;;1.97;1.07;;;;;;;7.54;100.00;98999.91;5000960;28;20606;-74
2023/01/09 08:25:25;;;;;;;2.60;1.70;;;;;;;7.50;100.00;99003.41;5003564;28;20194;-74
2023/01/09 08:27:50;;;;;;;2.13;0.83;;;;;;;7.55;100.00;98999.03;5003222;28;20550;-73
2023/01/09 08:30:16;;;;;;;3.40;1.60;;;;;;;7.58;100.00;99009.28;5003421;28;20326;-74
2023/01/09 08:32:41;;;;;;;4.37;2.33;;;;;;;7.66;100.00;98996.28;5003267;28;20196;-73
2023/01/09 08:35:07;;;;;;;2.87;1.47;;;;;;;7.74;100.00;98998.72;5000600;28;20278;-73
2023/01/09 08:37:33;;;;;;;1.90;0.90;;;;;;;7.78;100.00;99003.78;4998791;28;20185;-74
2023/01/09 08:39:58;;;;;;;2.90;1.10;;;;;;;7.80;100.00;99008.88;4999603;28;20232;-74
2023/01/09 08:47:55;;;;;;;1.50;0.90;;;;;;;7.90;100.00;99009.56;5001212;28;20210;-73
2023/01/09 08:50:21;;;;;;;1.30;0.80;;;;;;;7.97;100.00;99005.16;5003261;28;20195;-74
2023/01/09 08:52:46;;;;;;;3.10;0.70;;;;;;;8.05;100.00;99006.72;4996855;28;20208;-74
2023/01/09 08:55:11;;;;;;;2.07;1.20;;;;;;;8.13;100.00;99011.72;4998673;28;20185;-73
2023/01/09 08:57:37;;;;;;;1.30;0.80;;;;;;;8.21;99.75;99014.13;5000441;28;20192;-74
2023/01/09 09:00:03;;;;;;;0.80;0.70;;;;;;;8.23;98.67;99013.25;5003419;28;20192;-74
2023/01/09 09:02:28;;;;;;;1.30;0.50;;;;;;;8.33;98.66;99020.78;5003936;28;20314;-74
2023/01/09 09:04:55;;;;;;;2.70;1.10;;;;;;;8.39;98.62;99023.25;5005749;28;20618;-74
2023/01/09 09:07:25;;;;;;;0.63;0.53;;;;;;;8.42;98.27;99015.44;5010510;28;20194;-75
2023/01/09 09:09:52;;;;;;;1.17;0.60;;;;;;;8.42;98.18;99012.84;5006351;28;20192;-75
2023/01/09 09:12:17;;;;;;;4.37;1.30;;;;;;;8.41;98.38;99010.31;5004203;28;20267;-75
2023/01/09 09:17:27;;;;;;;1.83;0.70;;;;;;;8.46;97.54;99011.91;5010633;28;20199;-74
2023/01/09 09:19:53;;;;;;;1.33;1.00;;;;;;;8.50;97.47;99005.00;5008828;28;20192;-74
2023/01/09 09:22:18;;;;;;;2.57;1.23;;;;;;;8.56;96.54;99007.44;5026029;28;20206;-75
2023/01/09 09:24:43;;;;;;;2.20;0.80;;;;;;;8.60;96.69;99008.22;5039987;28;20187;-73
2023/01/09 09:27:09;;;;;;;1.17;0.73;;;;;;;8.61;96.33;99007.34;5013977;28;20686;-74
2023/01/09 09:29:34;;;;;;;2.33;0.80;;;;;;;8.60;96.82;99009.09;5008393;28;20192;-75
2023/01/09 09:31:59;;;;;;;2.53;0.80;;;;;;;8.61;96.75;99004.75;5006286;28;20204;-75
2023/01/09 09:34:25;;;;;;;1.80;0.90;;;;;;;8.68;96.89;99008.91;5008387;28;20196;-75
2023/01/09 09:36:50;;;;;;;1.87;0.93;;;;;;;8.80;96.67;99005.19;5007730;28;20203;-75
2023/01/09 09:39:15;;;;;;;3.23;0.93;;;;;;;8.95;96.17;99009.19;5008989;28;20187;-75
2023/01/09 09:45:31;;;;;;;2.30;0.80;;;;;;;9.29;95.42;99016.97;5005275;28;20203;-74
2023/01/09 09:48:15;;;;;;;2.40;0.80;;;;;;;9.48;94.91;99013.94;5006497;28;20193;-75
2023/01/09 09:51:02;;;;;;;1.23;0.80;;;;;;;9.49;93.51;99013.06;5004530;28;20664;-77
2023/01/09 09:53:39;;;;;;;2.73;0.90;;;;;;;9.54;93.22;99010.34;5004247;28;20283;-74
2023/01/09 09:56:10;;;;;;;3.60;1.13;;;;;;;9.52;92.86;99001.78;5005537;28;20266;-74
2023/01/09 09:58:38;;;;;;;2.30;1.00;;;;;;;9.41;92.43;99007.22;5006305;28;20262;-75
2023/01/09 10:01:06;;;;;;;1.93;0.90;;;;;;;9.31;93.06;99011.75;5003201;28;20254;-75
2023/01/09 10:03:44;;;;;;;2.57;1.10;;;;;;;9.25;93.10;99012.75;5005393;28;20208;-76
2023/01/09 10:06:18;;;;;;;1.70;0.73;;;;;;;9.17;93.18;98994.03;5005073;28;20189;-73
2023/01/09 10:09:05;;;;;;;2.60;1.20;;;;;;;9.11;93.74;98989.00;5008467;28;20203;-74
2023/01/09 10:11:58;;;;;;;1.70;0.90;;;;;;;9.06;94.31;98989.13;5005986;28;20227;-74
2023/01/09 10:14:24;;;;;;;2.77;1.00;;;;;;;9.07;94.37;98996.00;5005566;28;20215;-76
2023/01/09 10:17:25;;;;;;;1.90;0.80;;;;;;;9.10;94.38;98989.91;4999390;28;20192;-74
2023/01/09 10:20:08;;;;;;;3.30;0.93;;;;;;;9.14;93.77;99001.84;5000828;28;20310;-74
2023/01/09 10:22:33;;;;;;;3.83;0.90;;;;;;;9.10;94.50;99001.09;4999170;28;20240;-76
2023/01/09 10:25:05;;;;;;;3.40;1.27;;;;;;;9.14;95.16;98997.56;5002545;28;20228;-74
2023/01/09 10:27:37;;;;;;;2.23;0.93;;;;;;;9.24;95.26;99000.72;5002449;28;20219;-74
2023/01/09 10:30:19;;;;;;;2.67;1.10;;;;;;;9.29;94.94;99008.41;5002180;28;20196;-74
2023/01/09 10:32:55;;;;;;;2.33;1.10;;;;;;;9.25;93.47;99005.00;5001589;28;20211;-75
2023/01/09 10:35:38;;;;;;;3.30;1.43;;;;;;;9.29;93.70;99004.06;5002563;28;20195;-76
2023/01/09 10:38:05;;;;;;;2.90;1.23;;;;;;;9.43;93.57;98995.13;5002665;28;20755;-76
2023/01/09 10:40:57;;;;;;;2.10;0.97;;;;;;;9.58;92.81;98996.50;5005405;28;20806;-76
2023/01/09 10:43:27;;;;;;;3.00;1.00;;;;;;;9.64;92.32;98991.16;5003551;28;20394;-74
2023/01/09 10:45:57;;;;;;;1.63;1.20;;;;;;;9.76;91.79;99000.31;5002584;28;20180;-76
2023/01/09 10:48:31;;;;;;;2.97;0.93;;;;;;;9.90;91.14;98995.63;5005374;28;20262;-75
2023/01/09 10:50:56;;;;;;;2.10;1.17;;;;;;;9.96;91.34;98989.44;4995200;28;20183;-74
2023/01/09 10:53:37;;;;;;;2.63;1.37;;;;;;;10.05;91.31;98981.47;4994945;28;20292;-74
2023/01/09 10:56:31;;;;;;;3.07;1.20;;;;;;;10.18;91.16;98986.28;4994595;28;20319;-73
2023/01/09 10:58:56;;;;;;;3.13;1.20;;;;;;;10.29;89.37;98991.97;4993591;28;20208;-74
2023/01/09 11:01:27;;;;;;;3.37;1.23;;;;;;;10.48;89.92;98983.72;4987596;28;20197;-76
2023/01/09 11:03:53;;;;;;;2.47;1.23;;;;;;;10.61;90.02;98997.97;4992786;28;20244;-75
2023/01/09 11:06:26;;;;;;;2.60;1.13;;;;;;;10.84;90.00;98988.66;4995163;28;20220;-74
2023/01/09 11:08:59;;;;;;;2.43;1.07;;;;;;;10.94;89.95;98990.09;4994297;28;20180;-74
2023/01/09 11:11:39;;;;;;;2.30;1.27;;;;;;;10.89;90.85;98989.38;4993434;28;20187;-75
2023/01/09 11:14:17;;;;;;;2.77;1.20;;;;;;;10.72;91.71;99000.25;4991115;28;20192;-76
2023/01/09 11:17:03;;;;;;;4.57;1.30;;;;;;;10.58;92.08;99007.59;4989471;28;20275;-74
2023/01/09 11:19:32;;;;;;;3.00;1.30;;;;;;;10.50;93.28;99010.41;4990689;28;20207;-73
2023/01/09 11:22:16;;;;;;;2.80;1.13;;;;;;;10.43;94.53;99014.03;4996734;28;20609;-74
2023/01/09 11:24:42;;;;;;;2.17;1.00;;;;;;;10.29;95.53;99025.59;5000888;28;20196;-75
2023/01/09 11:27:23;;;;;;;2.53;1.27;;;;;;;10.04;97.19;99039.22;4991928;28;20297;-74
2023/01/09 11:30:07;;;;;;;3.57;1.40;;;;;;;9.74;98.98;99039.13;4995521;28;20200;-74
2023/01/09 11:32:33;;;;;;;3.10;1.30;;;;;;;9.56;100.00;99029.25;4995706;28;20217;-74
2023/01/09 11:34:59;;;;;;;2.90;1.40;;;;;;;9.45;100.00;99037.25;5009939;28;20183;-76
2023/01/09 11:37:29;;;;;;;4.97;1.50;;;;;;;9.42;100.00;99040.78;5022644;28;20204;-73
2023/01/09 11:39:57;;;;;;;2.63;1.20;;;;;;;9.47;100.00;99040.66;5026024;28;20184;-73
2023/01/09 11:45:23;;;;;;;3.03;1.13;;;;;;;9.38;100.00;99038.28;5000302;28;20671;-72
2023/01/09 11:47:48;;;;;;;4.13;1.47;;;;;;;9.31;100.00;99037.56;4997898;28;20193;-76
2023/01/09 11:50:25;;;;;;;3.13;1.50;;;;;;;9.32;100.00;99025.53;4997733;28;20188;-77
2023/01/09 11:53:14;;;;;;;4.27;1.37;;;;;;;9.34;100.00;99010.84;4996917;28;20216;-73
2023/01/09 11:55:40;;;;;;;2.77;1.40;;;;;;;9.27;100.00;99005.84;4997326;28;20180;-75
2023/01/09 11:58:13;;;;;;;4.70;1.80;;;;;;;9.19;100.00;99001.72;4993371;28;20271;-74
2023/01/09 12:01:06;;;;;;;3.50;1.20;;;;;;;9.13;100.00;98993.28;4992970;28;20342;-74
2023/01/09 12:03:47;;;;;;;2.73;1.30;;;;;;;9.25;100.00;99002.44;4996354;28;20236;-74